Norwegian Pearl — C6VG7 — position and weather

sailwx.info

Track history (hours):
 
Tides and Currents Weather Stations Pressure Air Temp Water Temp Dewpoint Dewpoint Depression Visibility Wind Speed Wind Dir Waves Ship Positions

Norwegian Pearl

Last reported at 2017-Mar-30 13:00 UTC. Time now 2017-Mar-30 14:41 UTC.
Position N 16°12' W 086°12'.

Type: Ship. MMSI: 309653000.

Wind from 120 at 23 knots

Barometer 1011.5 mb
Air temperature 25.8 ° C
Visibility: greater than 5.4 NM
Water temperature 28.0 ° C

Date/timePositionNaut miles runAvg speedWind from/ knotsBaromVisibWave heightAir tempDewpointWater temp
2017-Mar-30 13:00N 16°12' W 086°12'4623.2 120 / 231011.5 5.4 25.8 28.0
2017-Mar-30 11:00N 16°18' W 085°24'8180.8 130 / 321011.5 5.4 25.8 28.0
2017-Mar-30 10:00N 16°24' W 084°00'18 9.1 150 / 321011.5 5.4 25.8 28.0
2017-Mar-30 08:00N 16°30' W 084°18'2323.0 130 / 321011.5 5.4 25.8 28.0
2017-Mar-30 07:00N 16°30' W 083°54'1818.3 130 / 261012.0 5.4 25.8 28.0
2017-Mar-30 06:00N 16°36' W 083°36'2423.8 120 / 231012.4 5.4 25.7 28.0
2017-Mar-30 05:00N 16°42' W 083°12'2323.0 120 / 191013.4 5.4 27.0 28.0
2017-Mar-30 04:00N 16°42' W 082°48'1818.3 130 / 151013.4 5.4 27.0 28.0
2017-Mar-30 03:00N 16°48' W 082°30'2323.0 110 / 151013.4 5.4 27.0 28.0
2017-Mar-30 02:00N 16°48' W 082°06'2423.7 130 / 161013.4 5.4 27.0 28.0
2017-Mar-30 01:00N 16°54' W 081°42'1717.2 120 / 161011.9 5.4 27.0 28.0
2017-Mar-30 00:00N 16°54' W 081°24'2323.0 120 / 161011.9 5.4 27.0 28.0
2017-Mar-29 23:00N 16°54' W 081°00'2323.0 120 / 161011.9 5.4 27.0 28.0
2017-Mar-29 22:00N 16°54' W 080°36'2121.0 090 / 131011.9 5.4 27.0 28.0
2017-Mar-29 21:00N 16°42' W 080°18'2121.4 090 / 131011.9 5.4 27.0 28.0
2017-Mar-29 20:00N 16°24' W 080°06'1818.0 090 / 201011.8 5.4 26.3 28.0
2017-Mar-29 19:00N 16°06' W 080°06'2524.7 100 / 151012.2 5.4 26.3 28.0
2017-Mar-29 18:00N 15°42' W 080°12'4924.7 100 / 121012.9 5.4 26.1 28.0
2017-Mar-29 16:00N 14°54' W 080°24'1918.9 090 / 151013.9 5.4 27.0 28.0
2017-Mar-29 15:00N 14°36' W 080°30'11623.3 070 / 131013.9 5.4 28.0 28.0
2017-Mar-29 10:00N 12°42' W 080°54'1918.9 110 / 191012.327.0 24.9 29.0
2017-Mar-29 09:00N 12°24' W 081°00'2726.7 110 / 191012.327.0 24.9 29.0
2017-Mar-29 08:00N 12°00' W 081°12'2121.5 080 / 161011.427.0 25.9 29.0
2017-Mar-29 07:00N 11°42' W 081°24'3819.1 080 / 111011.727.0 26.2 29.0
2017-Mar-29 05:00N 11°12' W 081°48'2525.2 050 / 101013.4 5.4 27.0 28.0
2017-Mar-29 04:00N 10°54' W 082°06'6822.7 040 / 91013.4 5.4 27.0 28.0
2017-Mar-29 01:00N 10°00' W 082°48'13 3.3 050 / 61011.7 28.0
2017-Mar-28 21:00N 09°54' W 083°00'0 0.0 020 / 91010.2 5.4 27.5 28.0
2017-Mar-28 20:00N 09°54' W 083°00'18 2.5 040 / 91010.6 5.4 27.5 28.0
2017-Mar-28 13:00N 09°54' W 082°42'1817.7 150 / 51011.8 5.4 26.0 28.0
2017-Mar-28 12:00N 09°54' W 082°24'1918.7 050 / 51011.8 5.4 26.0 28.0
2017-Mar-28 11:00N 09°48' W 082°06'1211.8 040 / 51011.8 5.4 26.0 28.0
2017-Mar-28 10:00N 09°48' W 081°54'2423.6 030 / 51011.8 5.4 26.0 28.0
2017-Mar-28 09:00N 09°48' W 081°30'1918.7 360 / 51011.8 5.4 26.0 28.0
2017-Mar-28 08:00N 09°42' W 081°12'1817.7 030 / 41012.0 5.4 26.1 28.0
2017-Mar-28 07:00N 09°42' W 080°54'1211.8 030 / 71012.1 5.4 26.1 28.0
2017-Mar-28 06:00N 09°42' W 080°42'1918.7 020 / 101012.7 5.4 26.2 28.0
2017-Mar-28 05:00N 09°36' W 080°24'2516.5 360 / 131013.3 5.4 27.0 28.0
2017-Mar-28 03:28N 09°34' W 079°59'1313.8
2017-Mar-28 02:33N 09°22' W 079°54'1 1.0
2017-Mar-28 01:32N 09°22' W 079°53'0 0.0
2017-Mar-28 00:32N 09°22' W 079°53'0 0.0
2017-Mar-27 23:32N 09°22' W 079°53'0 0.0
2017-Mar-27 22:32N 09°22' W 079°53'0 0.0
2017-Mar-27 21:32N 09°22' W 079°53'0 0.1
2017-Mar-27 20:34N 09°22' W 079°53'2 1.7
2017-Mar-27 19:34N 09°22' W 079°55'5 5.3
2017-Mar-27 18:33N 09°17' W 079°55'0 0.4
2017-Mar-27 17:34N 09°16' W 079°55'1 0.7
2017-Mar-27 16:32N 09°16' W 079°55'0 0.0
2017-Mar-27 15:26N 09°16' W 079°55'0 0.0
2017-Mar-27 14:22N 09°16' W 079°55'1 0.8
2017-Mar-27 13:33N 09°16' W 079°55'0 0.3
2017-Mar-27 12:30N 09°17' W 079°55'0 0.5
2017-Mar-27 11:34N 09°17' W 079°55'4 3.5
2017-Mar-27 10:34N 09°21' W 079°55'7 6.9
2017-Mar-27 09:34N 09°27' W 079°55'2341.5
2017-Mar-27 09:00N 09°42' W 079°36'0 0.0 360 / 161011.3 5.4 26.1 28.0
2017-Mar-27 08:00N 09°42' W 079°36'1918.7 360 / 161011.3 5.4 26.1 28.0
2017-Mar-27 07:00N 09°48' W 079°18'1817.7 020 / 151011.6 5.4 26.1 28.0
2017-Mar-27 06:00N 09°48' W 079°00'4220.9 010 / 141012.5 5.4 26.3 28.0
2017-Mar-27 04:00N 09°54' W 078°18'1918.7 010 / 161013.8 5.4 27.0 28.0
2017-Mar-27 03:00N 10°00' W 078°00'4220.9 260 / 201013.4 5.4 27.0 28.0
2017-Mar-27 01:00N 10°06' W 077°18'1817.7 360 / 221010.9 5.4 27.0 28.0
2017-Mar-27 00:00N 10°06' W 077°00'2423.6 360 / 251009.0 28.0
2017-Mar-26 23:00N 10°06' W 076°36'2424.4 360 / 251009.0 28.0
2017-Mar-26 22:00N 10°12' W 076°12'4310.8 360 / 131009.0 28.0
2017-Mar-26 18:00N 10°24' W 075°30'6 0.9 340 / 20 27.0 28.0
2017-Mar-26 11:00N 10°18' W 075°30'6 5.9 010 / 101009.610.8 25.8 17.0
2017-Mar-26 10:00N 10°18' W 075°36'3015.0 020 / 251009.610.8 25.8 17.0
2017-Mar-26 08:00N 10°48' W 075°36'1818.0 030 / 201009.610.8 25.8 17.0
2017-Mar-26 07:00N 11°06' W 075°36'1918.9 030 / 221009.9 5.4 26.2 27.0
2017-Mar-26 06:00N 11°24' W 075°30'1212.0 040 / 221011.3 5.4 26.2 27.0
2017-Mar-26 05:00N 11°36' W 075°30'3618.2 050 / 251012.2 5.4 25.8 27.0
2017-Mar-26 03:00N 12°12' W 075°24'1818.0 050 / 271012.7 5.4 26.0 27.0
2017-Mar-26 02:00N 12°30' W 075°24'4221.2 050 / 231012.7 5.4 26.0 27.0
2017-Mar-26 00:00N 13°12' W 075°18'1212.0 050 / 231012.0 5.4 27.0 27.0
2017-Mar-25 23:00N 13°24' W 075°18'4816.1 080 / 171012.0 5.4 27.0 27.0
2017-Mar-25 20:00N 14°12' W 075°12'8517.0 080 / 171012.0 5.4 27.0 27.0
2017-Mar-25 15:00N 15°36' W 075°00'1918.9 070 / 161015.5 5.4 27.0 27.0
2017-Mar-25 14:00N 15°54' W 074°54'1818.0 070 / 161015.5 5.4 25.0 27.0
2017-Mar-25 13:00N 16°12' W 074°54'1818.0 080 / 191014.7 5.4 25.0 27.0
2017-Mar-25 12:00N 16°30' W 074°54'1918.9 180 / 121013.0 5.4 25.4 27.0
2017-Mar-25 11:00N 16°48' W 074°48'1212.0 090 / 121013.0 5.4 25.4 27.0
2017-Mar-25 10:00N 17°00' W 074°48'1818.0 080 / 121013.0 5.4 25.4 27.0
2017-Mar-25 09:00N 17°18' W 074°48'1918.9 110 / 31013.0 5.4 25.4 27.0
2017-Mar-25 08:00N 17°36' W 074°42'1818.0 110 / 31013.0 5.4 25.4 27.0
2017-Mar-25 07:00N 17°54' W 074°42'1818.0 100 / 41013.1 5.4 25.4 27.0
2017-Mar-25 06:00N 18°12' W 074°42'1818.0 050 / 91013.7 5.4 25.4 27.0
2017-Mar-25 05:00N 18°30' W 074°42'1212.0 070 / 231014.5 5.4 25.5 27.0
2017-Mar-25 04:00N 18°42' W 074°42'618618.1 060 / 271016.0 5.4 24.0 26.0
2017-Mar-25 03:00N 29°00' W 074°30'582582.0 040 / 321016.0 5.4 24.0 26.0
2017-Mar-25 02:00N 19°18' W 074°24'4321.3 050 / 321016.0 5.4 24.0 26.0
2017-Mar-25 00:00N 19°54' W 074°00'2424.0 060 / 251016.0 5.4 24.0 26.0
2017-Mar-24 23:00N 20°18' W 074°00'1817.9 030 / 301016.0 28.0
2017-Mar-24 22:00N 20°24' W 074°18'1616.4 030 / 301016.0 28.0
2017-Mar-24 21:00N 20°36' W 074°30'5919.6 030 / 301016.0 28.0
2017-Mar-24 18:00N 21°06' W 075°24'7919.6 040 / 371018.2 5.4 24.0 26.0
2017-Mar-24 14:00N 21°36' W 076°42'3316.6 040 / 351020.2 5.4 22.3 26.0
2017-Mar-24 12:00N 21°54' W 077°12'2524.5 050 / 351020.2 5.4 22.3 26.0
2017-Mar-24 11:00N 22°12' W 077°30'2120.5 040 / 351020.5 5.4 22.3 27.0
2017-Mar-24 10:00N 22°24' W 077°48'2120.5 050 / 281020.5 5.4 22.3 27.0
2017-Mar-24 09:00N 22°36' W 078°06'2322.9 050 / 241020.5 5.4 22.3 27.0
2017-Mar-24 08:00N 22°42' W 078°30'3718.6 060 / 241020.5 5.4 22.3 27.0
2017-Mar-24 06:00N 23°12' W 078°54'2121.1 060 / 431020.5 5.4 22.3 27.0
2017-Mar-24 05:00N 23°30' W 079°06'4019.8 060 / 391021.2 5.4 22.4 27.0
2017-Mar-24 03:00N 24°06' W 079°24'4522.5 060 / 401021.8 5.4 22.0 24.0
2017-Mar-24 01:00N 24°48' W 079°42'1313.2 060 / 401021.8 5.4 22.0 24.0
2017-Mar-24 00:00N 25°00' W 079°48'1818.0 070 / 531021.5 5.4 22.0 24.0
2017-Mar-23 23:00N 25°18' W 079°48'1431.3 160 / 281020.8 5.4 24.5 24.0
2017-Mar-23 22:33N 25°30' W 079°56'711.9
2017-Mar-23 22:00N 25°36' W 079°54'1125.1 020 / 281020.8 5.4 24.5 24.0
2017-Mar-23 21:33N 25°44' W 080°02'7 7.3
2017-Mar-23 20:34N 25°46' W 080°10'0 0.0
2017-Mar-23 19:33N 25°46' W 080°10'6 9.9
2017-Mar-23 19:00N 25°42' W 080°06'613.0 020 / 141021.8 5.4 24.5 24.0
2017-Mar-23 18:33N 25°46' W 080°10'6 9.9
2017-Mar-23 18:00N 25°42' W 080°06'613.0 060 / 131021.8 5.4 24.5 24.0
2017-Mar-23 17:33N 25°46' W 080°10'6 9.9
2017-Mar-23 17:00N 25°42' W 080°06'613.0 080 / 131022.0 5.4 25.0 25.0
2017-Mar-23 16:34N 25°46' W 080°10'0 0.0
2017-Mar-23 15:27N 25°46' W 080°10'0 0.0
2017-Mar-23 14:34N 25°46' W 080°10'0 0.0
2017-Mar-23 13:33N 25°46' W 080°10'0 0.0
2017-Mar-23 12:34N 25°46' W 080°10'0 0.0
2017-Mar-23 11:34N 25°46' W 080°10'0 0.0
2017-Mar-23 10:33N 25°46' W 080°10'1 0.6
2017-Mar-23 09:33N 25°46' W 080°09'9 9.2
2017-Mar-23 08:33N 25°45' W 079°59'1017.8
2017-Mar-23 08:00N 25°36' W 079°54'919.8 290 / 161020.0 5.4 21.7 27.0
2017-Mar-23 07:33N 25°28' W 079°56'1017.3
2017-Mar-23 07:00N 25°18' W 079°54'1227.8 290 / 161020.0 5.4 21.7 27.0
2017-Mar-23 06:34N 25°09' W 080°03'1526.6
2017-Mar-23 06:00N 24°54' W 080°06'1313.2 280 / 121020.3 5.4 22.0 27.0
2017-Mar-23 05:00N 24°42' W 080°12'2929.1 300 / 71020.5 5.4 22.7 27.0
2017-Mar-23 04:00N 24°18' W 080°30'2020.3 350 / 91020.7 5.4 22.4 27.0
2017-Mar-23 03:00N 24°06' W 080°48'2121.1 360 / 81020.5 5.4 23.0 27.0
2017-Mar-23 02:00N 23°48' W 081°00'2322.8 360 / 111019.8 5.4 23.0 27.0
2017-Mar-23 01:00N 23°42' W 081°24'2322.8 010 / 131019.4 5.4 23.3 27.0
2017-Mar-23 00:00N 23°36' W 081°48'4622.8 020 / 131018.9 5.4 23.3 27.0
2017-Mar-22 22:00N 23°24' W 082°36'2020.4 020 / 151018.710.8 23.3 27.0
2017-Mar-22 21:00N 23°12' W 082°54'2322.9 040 / 151018.710.8 23.3 27.0
2017-Mar-22 20:00N 23°06' W 083°18'1817.6 010 / 81018.710.8 23.3 27.0
2017-Mar-22 19:00N 23°00' W 083°36'4321.3 040 / 81018.710.8 23.3 27.0
2017-Mar-22 17:00N 22°42' W 084°18'8717.4 020 / 81020.010.8 24.5 27.0
2017-Mar-22 12:00N 21°18' W 084°42'2524.6 070 / 221018.210.8 24.1 27.0
2017-Mar-22 11:00N 21°00' W 084°24'4120.5 060 / 241017.110.8 24.1 27.0
2017-Mar-22 09:00N 20°30' W 083°54'5828.8 050 / 241017.110.8 24.1 27.0
2017-Mar-22 07:00N 19°48' W 083°12'1616.5 020 / 101017.110.8 24.1 27.0
2017-Mar-22 06:00N 19°36' W 083°00'2524.7 070 / 71017.410.8 24.0 27.0
2017-Mar-22 05:00N 19°18' W 082°42'4622.9 050 / 131017.710.8 24.2 27.0
2017-Mar-22 03:00N 18°42' W 082°12'2524.8 060 / 251017.710.8 25.0 27.0
2017-Mar-22 02:00N 18°24' W 081°54'2524.8 050 / 271017.410.8 25.0 27.0
2017-Mar-22 01:00N 18°06' W 081°36'2524.8 050 / 221016.810.8 25.0 27.0
2017-Mar-22 00:00N 17°48' W 081°18'2120.9 320 / 221015.710.8 25.0 28.0
2017-Mar-21 23:00N 17°36' W 081°00'2524.9 320 / 221015.710.8 25.0 28.0
2017-Mar-21 22:00N 17°18' W 080°42'6923.1 320 / 221015.710.8 25.0 28.0
2017-Mar-21 19:00N 16°18' W 080°06'2524.7 040 / 131015.710.8 25.0 28.0
2017-Mar-21 18:00N 15°54' W 080°12'648324.1 010 / 131016.210.8 26.0 28.0
2017-Mar-21 16:00N 05°06' W 080°24'576576.0 020 / 121017.0 5.4 28.0 28.0
2017-Mar-21 15:00N 14°42' W 080°30'4221.2 020 / 161017.0 5.4 28.0 28.0
2017-Mar-21 13:00N 14°00' W 080°36'2524.7 030 / 171016.0 5.4 26.0 28.0
2017-Mar-21 12:00N 13°36' W 080°42'4421.8 010 / 171012.2 5.4 26.0 28.0
2017-Mar-21 10:00N 12°54' W 080°54'2524.7 040 / 221012.2 5.4 26.0 28.0
2017-Mar-21 09:00N 12°30' W 081°00'1918.9 010 / 221012.2 5.4 26.0 28.0
2017-Mar-21 08:00N 12°12' W 081°06'2121.5 020 / 201012.2 5.4 26.0 28.0
2017-Mar-21 07:00N 11°54' W 081°18'3029.8 020 / 171013.8 5.4 26.3 28.0
2017-Mar-21 06:00N 11°30' W 081°36'1716.8 020 / 191014.5 5.4 26.4 28.0
2017-Mar-21 05:00N 11°18' W 081°48'2726.7 340 / 201015.1 5.4 26.5 28.0
2017-Mar-21 04:00N 10°54' W 082°00'1716.8 340 / 101015.7 5.4 25.0 28.0
2017-Mar-21 03:00N 10°42' W 082°12'67 9.6 330 / 131015.7 5.4 25.0 28.0
2017-Mar-20 20:00N 09°54' W 083°00'0 0.0 360 / 101013.410.8 28.1 29.0
2017-Mar-20 19:00N 09°54' W 083°00'   350 / 131014.010.8 27.7 29.0
Track history (hours):
 
Tides and Currents Weather Stations Pressure Air Temp Water Temp Dewpoint Dewpoint Depression Visibility Wind Speed Wind Dir Waves Ship Positions

Norwegian Pearl

Last reported at 2017-Mar-30 13:00 UTC. Time now 2017-Mar-30 14:41 UTC.
Position N 16°12' W 086°12'.

Type: Ship. MMSI: 309653000.

Wind from 120 at 23 knots

Barometer 1011.5 mb
Air temperature 25.8 ° C
Visibility: greater than 5.4 NM
Water temperature 28.0 ° C

Date/timePositionNaut miles runAvg speedWind from/ knotsBaromVisibWave heightAir tempDewpointWater temp
2017-Mar-30 13:00N 16°12' W 086°12'4623.2 120 / 231011.5 5.4 25.8 28.0
2017-Mar-30 11:00N 16°18' W 085°24'8180.8 130 / 321011.5 5.4 25.8 28.0
2017-Mar-30 10:00N 16°24' W 084°00'18 9.1 150 / 321011.5 5.4 25.8 28.0
2017-Mar-30 08:00N 16°30' W 084°18'2323.0 130 / 321011.5 5.4 25.8 28.0
2017-Mar-30 07:00N 16°30' W 083°54'1818.3 130 / 261012.0 5.4 25.8 28.0
2017-Mar-30 06:00N 16°36' W 083°36'2423.8 120 / 231012.4 5.4 25.7 28.0
2017-Mar-30 05:00N 16°42' W 083°12'2323.0 120 / 191013.4 5.4 27.0 28.0
2017-Mar-30 04:00N 16°42' W 082°48'1818.3 130 / 151013.4 5.4 27.0 28.0
2017-Mar-30 03:00N 16°48' W 082°30'2323.0 110 / 151013.4 5.4 27.0 28.0
2017-Mar-30 02:00N 16°48' W 082°06'2423.7 130 / 161013.4 5.4 27.0 28.0
2017-Mar-30 01:00N 16°54' W 081°42'1717.2 120 / 161011.9 5.4 27.0 28.0
2017-Mar-30 00:00N 16°54' W 081°24'2323.0 120 / 161011.9 5.4 27.0 28.0
2017-Mar-29 23:00N 16°54' W 081°00'2323.0 120 / 161011.9 5.4 27.0 28.0
2017-Mar-29 22:00N 16°54' W 080°36'2121.0 090 / 131011.9 5.4 27.0 28.0
2017-Mar-29 21:00N 16°42' W 080°18'2121.4 090 / 131011.9 5.4 27.0 28.0
2017-Mar-29 20:00N 16°24' W 080°06'1818.0 090 / 201011.8 5.4 26.3 28.0
2017-Mar-29 19:00N 16°06' W 080°06'2524.7 100 / 151012.2 5.4 26.3 28.0
2017-Mar-29 18:00N 15°42' W 080°12'4924.7 100 / 121012.9 5.4 26.1 28.0
2017-Mar-29 16:00N 14°54' W 080°24'1918.9 090 / 151013.9 5.4 27.0 28.0
2017-Mar-29 15:00N 14°36' W 080°30'11623.3 070 / 131013.9 5.4 28.0 28.0
2017-Mar-29 10:00N 12°42' W 080°54'1918.9 110 / 191012.327.0 24.9 29.0
2017-Mar-29 09:00N 12°24' W 081°00'2726.7 110 / 191012.327.0 24.9 29.0
2017-Mar-29 08:00N 12°00' W 081°12'2121.5 080 / 161011.427.0 25.9 29.0
2017-Mar-29 07:00N 11°42' W 081°24'3819.1 080 / 111011.727.0 26.2 29.0
2017-Mar-29 05:00N 11°12' W 081°48'2525.2 050 / 101013.4 5.4 27.0 28.0
2017-Mar-29 04:00N 10°54' W 082°06'6822.7 040 / 91013.4 5.4 27.0 28.0
2017-Mar-29 01:00N 10°00' W 082°48'13 3.3 050 / 61011.7 28.0
2017-Mar-28 21:00N 09°54' W 083°00'0 0.0 020 / 91010.2 5.4 27.5 28.0
2017-Mar-28 20:00N 09°54' W 083°00'18 2.5 040 / 91010.6 5.4 27.5 28.0
2017-Mar-28 13:00N 09°54' W 082°42'1817.7 150 / 51011.8 5.4 26.0 28.0
2017-Mar-28 12:00N 09°54' W 082°24'1918.7 050 / 51011.8 5.4 26.0 28.0
2017-Mar-28 11:00N 09°48' W 082°06'1211.8 040 / 51011.8 5.4 26.0 28.0
2017-Mar-28 10:00N 09°48' W 081°54'2423.6 030 / 51011.8 5.4 26.0 28.0
2017-Mar-28 09:00N 09°48' W 081°30'1918.7 360 / 51011.8 5.4 26.0 28.0
2017-Mar-28 08:00N 09°42' W 081°12'1817.7 030 / 41012.0 5.4 26.1 28.0
2017-Mar-28 07:00N 09°42' W 080°54'1211.8 030 / 71012.1 5.4 26.1 28.0
2017-Mar-28 06:00N 09°42' W 080°42'1918.7 020 / 101012.7 5.4 26.2 28.0
2017-Mar-28 05:00N 09°36' W 080°24'2516.5 360 / 131013.3 5.4 27.0 28.0
2017-Mar-28 03:28N 09°34' W 079°59'1313.8
2017-Mar-28 02:33N 09°22' W 079°54'1 1.0
2017-Mar-28 01:32N 09°22' W 079°53'0 0.0
2017-Mar-28 00:32N 09°22' W 079°53'0 0.0
2017-Mar-27 23:32N 09°22' W 079°53'0 0.0
2017-Mar-27 22:32N 09°22' W 079°53'0 0.0
2017-Mar-27 21:32N 09°22' W 079°53'0 0.1
2017-Mar-27 20:34N 09°22' W 079°53'2 1.7
2017-Mar-27 19:34N 09°22' W 079°55'5 5.3
2017-Mar-27 18:33N 09°17' W 079°55'0 0.4
2017-Mar-27 17:34N 09°16' W 079°55'1 0.7
2017-Mar-27 16:32N 09°16' W 079°55'0 0.0
2017-Mar-27 15:26N 09°16' W 079°55'0 0.0
2017-Mar-27 14:22N 09°16' W 079°55'1 0.8
2017-Mar-27 13:33N 09°16' W 079°55'0 0.3
2017-Mar-27 12:30N 09°17' W 079°55'0 0.5
2017-Mar-27 11:34N 09°17' W 079°55'4 3.5
2017-Mar-27 10:34N 09°21' W 079°55'7 6.9
2017-Mar-27 09:34N 09°27' W 079°55'2341.5
2017-Mar-27 09:00N 09°42' W 079°36'0 0.0 360 / 161011.3 5.4 26.1 28.0
2017-Mar-27 08:00N 09°42' W 079°36'1918.7 360 / 161011.3 5.4 26.1 28.0
2017-Mar-27 07:00N 09°48' W 079°18'1817.7 020 / 151011.6 5.4 26.1 28.0
2017-Mar-27 06:00N 09°48' W 079°00'4220.9 010 / 141012.5 5.4 26.3 28.0
2017-Mar-27 04:00N 09°54' W 078°18'1918.7 010 / 161013.8 5.4 27.0 28.0
2017-Mar-27 03:00N 10°00' W 078°00'4220.9 260 / 201013.4 5.4 27.0 28.0
2017-Mar-27 01:00N 10°06' W 077°18'1817.7 360 / 221010.9 5.4 27.0 28.0
2017-Mar-27 00:00N 10°06' W 077°00'2423.6 360 / 251009.0 28.0
2017-Mar-26 23:00N 10°06' W 076°36'2424.4 360 / 251009.0 28.0
2017-Mar-26 22:00N 10°12' W 076°12'4310.8 360 / 131009.0 28.0
2017-Mar-26 18:00N 10°24' W 075°30'6 0.9 340 / 20 27.0 28.0
2017-Mar-26 11:00N 10°18' W 075°30'6 5.9 010 / 101009.610.8 25.8 17.0
2017-Mar-26 10:00N 10°18' W 075°36'3015.0 020 / 251009.610.8 25.8 17.0
2017-Mar-26 08:00N 10°48' W 075°36'1818.0 030 / 201009.610.8 25.8 17.0
2017-Mar-26 07:00N 11°06' W 075°36'1918.9 030 / 221009.9 5.4 26.2 27.0
2017-Mar-26 06:00N 11°24' W 075°30'1212.0 040 / 221011.3 5.4 26.2 27.0
2017-Mar-26 05:00N 11°36' W 075°30'3618.2 050 / 251012.2 5.4 25.8 27.0
2017-Mar-26 03:00N 12°12' W 075°24'1818.0 050 / 271012.7 5.4 26.0 27.0
2017-Mar-26 02:00N 12°30' W 075°24'4221.2 050 / 231012.7 5.4 26.0 27.0
2017-Mar-26 00:00N 13°12' W 075°18'1212.0 050 / 231012.0 5.4 27.0 27.0
2017-Mar-25 23:00N 13°24' W 075°18'4816.1 080 / 171012.0 5.4 27.0 27.0
2017-Mar-25 20:00N 14°12' W 075°12'8517.0 080 / 171012.0 5.4 27.0 27.0
2017-Mar-25 15:00N 15°36' W 075°00'1918.9 070 / 161015.5 5.4 27.0 27.0
2017-Mar-25 14:00N 15°54' W 074°54'1818.0 070 / 161015.5 5.4 25.0 27.0
2017-Mar-25 13:00N 16°12' W 074°54'1818.0 080 / 191014.7 5.4 25.0 27.0
2017-Mar-25 12:00N 16°30' W 074°54'1918.9 180 / 121013.0 5.4 25.4 27.0
2017-Mar-25 11:00N 16°48' W 074°48'1212.0 090 / 121013.0 5.4 25.4 27.0
2017-Mar-25 10:00N 17°00' W 074°48'1818.0 080 / 121013.0 5.4 25.4 27.0
2017-Mar-25 09:00N 17°18' W 074°48'1918.9 110 / 31013.0 5.4 25.4 27.0
2017-Mar-25 08:00N 17°36' W 074°42'1818.0 110 / 31013.0 5.4 25.4 27.0
2017-Mar-25 07:00N 17°54' W 074°42'1818.0 100 / 41013.1 5.4 25.4 27.0
2017-Mar-25 06:00N 18°12' W 074°42'1818.0 050 / 91013.7 5.4 25.4 27.0
2017-Mar-25 05:00N 18°30' W 074°42'1212.0 070 / 231014.5 5.4 25.5 27.0
2017-Mar-25 04:00N 18°42' W 074°42'618618.1 060 / 271016.0 5.4 24.0 26.0
2017-Mar-25 03:00N 29°00' W 074°30'582582.0 040 / 321016.0 5.4 24.0 26.0
2017-Mar-25 02:00N 19°18' W 074°24'4321.3 050 / 321016.0 5.4 24.0 26.0
2017-Mar-25 00:00N 19°54' W 074°00'2424.0 060 / 251016.0 5.4 24.0 26.0
2017-Mar-24 23:00N 20°18' W 074°00'1817.9 030 / 301016.0 28.0
2017-Mar-24 22:00N 20°24' W 074°18'1616.4 030 / 301016.0 28.0
2017-Mar-24 21:00N 20°36' W 074°30'5919.6 030 / 301016.0 28.0
2017-Mar-24 18:00N 21°06' W 075°24'7919.6 040 / 371018.2 5.4 24.0 26.0
2017-Mar-24 14:00N 21°36' W 076°42'3316.6 040 / 351020.2 5.4 22.3 26.0
2017-Mar-24 12:00N 21°54' W 077°12'2524.5 050 / 351020.2 5.4 22.3 26.0
2017-Mar-24 11:00N 22°12' W 077°30'2120.5 040 / 351020.5 5.4 22.3 27.0
2017-Mar-24 10:00N 22°24' W 077°48'2120.5 050 / 281020.5 5.4 22.3 27.0
2017-Mar-24 09:00N 22°36' W 078°06'2322.9 050 / 241020.5 5.4 22.3 27.0
2017-Mar-24 08:00N 22°42' W 078°30'3718.6 060 / 241020.5 5.4 22.3 27.0
2017-Mar-24 06:00N 23°12' W 078°54'2121.1 060 / 431020.5 5.4 22.3 27.0
2017-Mar-24 05:00N 23°30' W 079°06'4019.8 060 / 391021.2 5.4 22.4 27.0
2017-Mar-24 03:00N 24°06' W 079°24'4522.5 060 / 401021.8 5.4 22.0 24.0
2017-Mar-24 01:00N 24°48' W 079°42'1313.2 060 / 401021.8 5.4 22.0 24.0
2017-Mar-24 00:00N 25°00' W 079°48'1818.0 070 / 531021.5 5.4 22.0 24.0
2017-Mar-23 23:00N 25°18' W 079°48'1431.3 160 / 281020.8 5.4 24.5 24.0
2017-Mar-23 22:33N 25°30' W 079°56'711.9
2017-Mar-23 22:00N 25°36' W 079°54'1125.1 020 / 281020.8 5.4 24.5 24.0
2017-Mar-23 21:33N 25°44' W 080°02'7 7.3
2017-Mar-23 20:34N 25°46' W 080°10'0 0.0
2017-Mar-23 19:33N 25°46' W 080°10'6 9.9
2017-Mar-23 19:00N 25°42' W 080°06'613.0 020 / 141021.8 5.4 24.5 24.0
2017-Mar-23 18:33N 25°46' W 080°10'6 9.9
2017-Mar-23 18:00N 25°42' W 080°06'613.0 060 / 131021.8 5.4 24.5 24.0
2017-Mar-23 17:33N 25°46' W 080°10'6 9.9
2017-Mar-23 17:00N 25°42' W 080°06'613.0 080 / 131022.0 5.4 25.0 25.0
2017-Mar-23 16:34N 25°46' W 080°10'0 0.0
2017-Mar-23 15:27N 25°46' W 080°10'0 0.0
2017-Mar-23 14:34N 25°46' W 080°10'0 0.0
2017-Mar-23 13:33N 25°46' W 080°10'0 0.0
2017-Mar-23 12:34N 25°46' W 080°10'0 0.0
2017-Mar-23 11:34N 25°46' W 080°10'0 0.0
2017-Mar-23 10:33N 25°46' W 080°10'1 0.6
2017-Mar-23 09:33N 25°46' W 080°09'9 9.2
2017-Mar-23 08:33N 25°45' W 079°59'1017.8
2017-Mar-23 08:00N 25°36' W 079°54'919.8 290 / 161020.0 5.4 21.7 27.0
2017-Mar-23 07:33N 25°28' W 079°56'1017.3
2017-Mar-23 07:00N 25°18' W 079°54'1227.8 290 / 161020.0 5.4 21.7 27.0
2017-Mar-23 06:34N 25°09' W 080°03'1526.6
2017-Mar-23 06:00N 24°54' W 080°06'1313.2 280 / 121020.3 5.4 22.0 27.0
2017-Mar-23 05:00N 24°42' W 080°12'2929.1 300 / 71020.5 5.4 22.7 27.0
2017-Mar-23 04:00N 24°18' W 080°30'2020.3 350 / 91020.7 5.4 22.4 27.0
2017-Mar-23 03:00N 24°06' W 080°48'2121.1 360 / 81020.5 5.4 23.0 27.0
2017-Mar-23 02:00N 23°48' W 081°00'2322.8 360 / 111019.8 5.4 23.0 27.0
2017-Mar-23 01:00N 23°42' W 081°24'2322.8 010 / 131019.4 5.4 23.3 27.0
2017-Mar-23 00:00N 23°36' W 081°48'4622.8 020 / 131018.9 5.4 23.3 27.0
2017-Mar-22 22:00N 23°24' W 082°36'2020.4 020 / 151018.710.8 23.3 27.0
2017-Mar-22 21:00N 23°12' W 082°54'2322.9 040 / 151018.710.8 23.3 27.0
2017-Mar-22 20:00N 23°06' W 083°18'1817.6 010 / 81018.710.8 23.3 27.0
2017-Mar-22 19:00N 23°00' W 083°36'4321.3 040 / 81018.710.8 23.3 27.0
2017-Mar-22 17:00N 22°42' W 084°18'8717.4 020 / 81020.010.8 24.5 27.0
2017-Mar-22 12:00N 21°18' W 084°42'2524.6 070 / 221018.210.8 24.1 27.0
2017-Mar-22 11:00N 21°00' W 084°24'4120.5 060 / 241017.110.8 24.1 27.0
2017-Mar-22 09:00N 20°30' W 083°54'5828.8 050 / 241017.110.8 24.1 27.0
2017-Mar-22 07:00N 19°48' W 083°12'1616.5 020 / 101017.110.8 24.1 27.0
2017-Mar-22 06:00N 19°36' W 083°00'2524.7 070 / 71017.410.8 24.0 27.0
2017-Mar-22 05:00N 19°18' W 082°42'4622.9 050 / 131017.710.8 24.2 27.0
2017-Mar-22 03:00N 18°42' W 082°12'2524.8 060 / 251017.710.8 25.0 27.0
2017-Mar-22 02:00N 18°24' W 081°54'2524.8 050 / 271017.410.8 25.0 27.0
2017-Mar-22 01:00N 18°06' W 081°36'2524.8 050 / 221016.810.8 25.0 27.0
2017-Mar-22 00:00N 17°48' W 081°18'2120.9 320 / 221015.710.8 25.0 28.0
2017-Mar-21 23:00N 17°36' W 081°00'2524.9 320 / 221015.710.8 25.0 28.0
2017-Mar-21 22:00N 17°18' W 080°42'6923.1 320 / 221015.710.8 25.0 28.0
2017-Mar-21 19:00N 16°18' W 080°06'2524.7 040 / 131015.710.8 25.0 28.0
2017-Mar-21 18:00N 15°54' W 080°12'648324.1 010 / 131016.210.8 26.0 28.0
2017-Mar-21 16:00N 05°06' W 080°24'576576.0 020 / 121017.0 5.4 28.0 28.0
2017-Mar-21 15:00N 14°42' W 080°30'4221.2 020 / 161017.0 5.4 28.0 28.0
2017-Mar-21 13:00N 14°00' W 080°36'2524.7 030 / 171016.0 5.4 26.0 28.0
2017-Mar-21 12:00N 13°36' W 080°42'4421.8 010 / 171012.2 5.4 26.0 28.0
2017-Mar-21 10:00N 12°54' W 080°54'2524.7 040 / 221012.2 5.4 26.0 28.0
2017-Mar-21 09:00N 12°30' W 081°00'1918.9 010 / 221012.2 5.4 26.0 28.0
2017-Mar-21 08:00N 12°12' W 081°06'2121.5 020 / 201012.2 5.4 26.0 28.0
2017-Mar-21 07:00N 11°54' W 081°18'3029.8 020 / 171013.8 5.4 26.3 28.0
2017-Mar-21 06:00N 11°30' W 081°36'1716.8 020 / 191014.5 5.4 26.4 28.0
2017-Mar-21 05:00N 11°18' W 081°48'2726.7 340 / 201015.1 5.4 26.5 28.0
2017-Mar-21 04:00N 10°54' W 082°00'1716.8 340 / 101015.7 5.4 25.0 28.0
2017-Mar-21 03:00N 10°42' W 082°12'67 9.6 330 / 131015.7 5.4 25.0 28.0
2017-Mar-20 20:00N 09°54' W 083°00'0 0.0 360 / 101013.410.8 28.1 29.0
2017-Mar-20 19:00N 09°54' W 083°00'   350 / 131014.010.8 27.7 29.0

Dump ship's entire track history